sensor_id;sensor_type;location;lat;lon;timestamp;P1;durP1;ratioP1;P2;durP2;ratioP2
20173;SDS011;10246;50.620;7.232;2023-02-27T00:01:46;3.87;;;2.73;;
20173;SDS011;10246;50.620;7.232;2023-02-27T00:04:13;6.23;;;2.93;;
20173;SDS011;10246;50.620;7.232;2023-02-27T00:06:40;5.60;;;3.13;;
20173;SDS011;10246;50.620;7.232;2023-02-27T00:09:06;4.57;;;2.50;;
20173;SDS011;10246;50.620;7.232;2023-02-27T00:11:33;3.20;;;2.60;;
20173;SDS011;10246;50.620;7.232;2023-02-27T00:14:02;5.27;;;2.70;;
20173;SDS011;10246;50.620;7.232;2023-02-27T00:16:29;3.70;;;2.20;;
20173;SDS011;10246;50.620;7.232;2023-02-27T00:18:57;4.70;;;2.40;;
20173;SDS011;10246;50.620;7.232;2023-02-27T00:21:25;3.67;;;2.60;;
20173;SDS011;10246;50.620;7.232;2023-02-27T00:23:52;4.60;;;2.57;;
20173;SDS011;10246;50.620;7.232;2023-02-27T00:26:19;3.37;;;2.50;;
20173;SDS011;10246;50.620;7.232;2023-02-27T00:28:46;4.03;;;2.30;;
20173;SDS011;10246;50.620;7.232;2023-02-27T00:31:12;4.10;;;2.50;;
20173;SDS011;10246;50.620;7.232;2023-02-27T00:33:39;3.90;;;2.60;;
20173;SDS011;10246;50.620;7.232;2023-02-27T00:36:07;3.97;;;2.77;;
20173;SDS011;10246;50.620;7.232;2023-02-27T00:38:34;3.80;;;2.77;;
20173;SDS011;10246;50.620;7.232;2023-02-27T00:41:01;3.07;;;2.30;;
20173;SDS011;10246;50.620;7.232;2023-02-27T00:43:28;4.30;;;2.80;;
20173;SDS011;10246;50.620;7.232;2023-02-27T00:45:59;5.03;;;2.20;;
20173;SDS011;10246;50.620;7.232;2023-02-27T00:48:26;3.70;;;2.57;;
20173;SDS011;10246;50.620;7.232;2023-02-27T00:50:53;2.83;;;2.27;;
20173;SDS011;10246;50.620;7.232;2023-02-27T00:53:21;4.57;;;2.60;;
20173;SDS011;10246;50.620;7.232;2023-02-27T00:55:48;4.30;;;2.40;;
20173;SDS011;10246;50.620;7.232;2023-02-27T00:58:15;3.27;;;2.23;;
20173;SDS011;10246;50.620;7.232;2023-02-27T01:00:41;3.33;;;2.50;;
20173;SDS011;10246;50.620;7.232;2023-02-27T01:03:08;4.80;;;2.30;;
20173;SDS011;10246;50.620;7.232;2023-02-27T01:05:35;3.97;;;2.20;;
20173;SDS011;10246;50.620;7.232;2023-02-27T01:08:02;4.77;;;2.70;;
20173;SDS011;10246;50.620;7.232;2023-02-27T01:10:30;3.63;;;2.50;;
20173;SDS011;10246;50.620;7.232;2023-02-27T01:12:57;2.93;;;2.10;;
20173;SDS011;10246;50.620;7.232;2023-02-27T01:15:24;4.10;;;2.30;;
20173;SDS011;10246;50.620;7.232;2023-02-27T01:17:50;3.37;;;2.30;;
20173;SDS011;10246;50.620;7.232;2023-02-27T01:20:17;4.33;;;2.37;;
20173;SDS011;10246;50.620;7.232;2023-02-27T01:22:44;2.83;;;2.10;;
20173;SDS011;10246;50.620;7.232;2023-02-27T01:25:11;4.70;;;2.13;;
20173;SDS011;10246;50.620;7.232;2023-02-27T01:27:39;2.50;;;2.10;;
20173;SDS011;10246;50.620;7.232;2023-02-27T01:30:06;2.23;;;1.90;;
20173;SDS011;10246;50.620;7.232;2023-02-27T01:32:35;3.10;;;2.37;;
20173;SDS011;10246;50.620;7.232;2023-02-27T01:35:02;4.60;;;2.63;;
20173;SDS011;10246;50.620;7.232;2023-02-27T01:37:29;2.40;;;2.10;;
20173;SDS011;10246;50.620;7.232;2023-02-27T01:39:56;2.77;;;2.13;;
20173;SDS011;10246;50.620;7.232;2023-02-27T01:42:24;5.00;;;2.30;;
20173;SDS011;10246;50.620;7.232;2023-02-27T01:45:09;3.90;;;2.30;;
20173;SDS011;10246;50.620;7.232;2023-02-27T01:47:56;2.67;;;2.33;;
20173;SDS011;10246;50.620;7.232;2023-02-27T01:50:28;6.40;;;2.80;;
20173;SDS011;10246;50.620;7.232;2023-02-27T01:52:57;3.90;;;2.50;;
20173;SDS011;10246;50.620;7.232;2023-02-27T01:55:27;5.00;;;2.60;;
20173;SDS011;10246;50.620;7.232;2023-02-27T01:57:56;4.03;;;2.33;;
20173;SDS011;10246;50.620;7.232;2023-02-27T02:00:25;3.10;;;2.43;;
20173;SDS011;10246;50.620;7.232;2023-02-27T02:02:54;4.33;;;2.80;;
20173;SDS011;10246;50.620;7.232;2023-02-27T02:05:26;3.73;;;2.30;;
20173;SDS011;10246;50.620;7.232;2023-02-27T02:07:54;3.30;;;2.53;;
20173;SDS011;10246;50.620;7.232;2023-02-27T02:10:21;3.03;;;2.33;;
20173;SDS011;10246;50.620;7.232;2023-02-27T02:12:49;4.57;;;2.23;;
20173;SDS011;10246;50.620;7.232;2023-02-27T02:15:16;3.23;;;2.30;;
20173;SDS011;10246;50.620;7.232;2023-02-27T02:17:48;3.77;;;2.60;;
20173;SDS011;10246;50.620;7.232;2023-02-27T02:23:35;4.30;;;2.40;;
20173;SDS011;10246;50.620;7.232;2023-02-27T02:26:22;3.43;;;2.50;;
20173;SDS011;10246;50.620;7.232;2023-02-27T02:29:24;4.73;;;2.77;;
20173;SDS011;10246;50.620;7.232;2023-02-27T02:35:37;4.10;;;2.30;;
20173;SDS011;10246;50.620;7.232;2023-02-27T02:38:39;2.47;;;2.13;;
20173;SDS011;10246;50.620;7.232;2023-02-27T02:41:19;5.53;;;2.20;;
20173;SDS011;10246;50.620;7.232;2023-02-27T02:43:56;4.50;;;2.57;;
20173;SDS011;10246;50.620;7.232;2023-02-27T02:46:29;2.63;;;1.90;;
20173;SDS011;10246;50.620;7.232;2023-02-27T02:49:06;4.13;;;2.30;;
20173;SDS011;10246;50.620;7.232;2023-02-27T02:51:40;4.07;;;2.10;;
20173;SDS011;10246;50.620;7.232;2023-02-27T02:54:15;3.23;;;2.63;;
20173;SDS011;10246;50.620;7.232;2023-02-27T02:56:46;3.70;;;2.27;;
20173;SDS011;10246;50.620;7.232;2023-02-27T02:59:18;3.27;;;2.33;;
20173;SDS011;10246;50.620;7.232;2023-02-27T03:01:50;2.93;;;2.17;;
20173;SDS011;10246;50.620;7.232;2023-02-27T03:04:22;3.13;;;2.30;;
20173;SDS011;10246;50.620;7.232;2023-02-27T03:06:55;2.73;;;2.00;;
20173;SDS011;10246;50.620;7.232;2023-02-27T03:09:27;5.07;;;2.30;;
20173;SDS011;10246;50.620;7.232;2023-02-27T03:11:58;4.33;;;2.33;;
20173;SDS011;10246;50.620;7.232;2023-02-27T03:14:29;2.63;;;2.23;;
20173;SDS011;10246;50.620;7.232;2023-02-27T03:17:01;3.43;;;2.50;;
20173;SDS011;10246;50.620;7.232;2023-02-27T03:19:32;3.63;;;2.40;;
20173;SDS011;10246;50.620;7.232;2023-02-27T03:22:03;3.40;;;2.60;;
20173;SDS011;10246;50.620;7.232;2023-02-27T03:24:35;2.87;;;2.23;;
20173;SDS011;10246;50.620;7.232;2023-02-27T03:27:07;2.77;;;2.27;;
20173;SDS011;10246;50.620;7.232;2023-02-27T03:29:36;3.00;;;2.27;;
20173;SDS011;10246;50.620;7.232;2023-02-27T03:32:11;5.60;;;2.57;;
20173;SDS011;10246;50.620;7.232;2023-02-27T03:34:41;4.13;;;2.50;;
20173;SDS011;10246;50.620;7.232;2023-02-27T03:37:12;4.50;;;2.43;;
20173;SDS011;10246;50.620;7.232;2023-02-27T03:39:49;6.47;;;2.83;;
20173;SDS011;10246;50.620;7.232;2023-02-27T03:42:22;4.00;;;2.40;;
20173;SDS011;10246;50.620;7.232;2023-02-27T03:44:56;5.73;;;2.57;;
20173;SDS011;10246;50.620;7.232;2023-02-27T03:47:25;3.10;;;2.27;;
20173;SDS011;10246;50.620;7.232;2023-02-27T03:49:52;5.83;;;2.60;;
20173;SDS011;10246;50.620;7.232;2023-02-27T03:52:19;4.30;;;2.57;;
20173;SDS011;10246;50.620;7.232;2023-02-27T03:54:50;4.83;;;2.40;;
20173;SDS011;10246;50.620;7.232;2023-02-27T03:57:21;4.67;;;2.70;;
20173;SDS011;10246;50.620;7.232;2023-02-27T03:59:48;4.07;;;2.67;;
20173;SDS011;10246;50.620;7.232;2023-02-27T04:02:17;3.60;;;2.60;;
20173;SDS011;10246;50.620;7.232;2023-02-27T04:04:44;2.70;;;2.40;;
20173;SDS011;10246;50.620;7.232;2023-02-27T04:07:13;4.87;;;2.70;;
20173;SDS011;10246;50.620;7.232;2023-02-27T04:09:54;3.47;;;2.53;;
20173;SDS011;10246;50.620;7.232;2023-02-27T04:12:40;2.97;;;2.33;;
20173;SDS011;10246;50.620;7.232;2023-02-27T04:15:19;3.53;;;1.97;;
20173;SDS011;10246;50.620;7.232;2023-02-27T04:17:54;4.73;;;2.57;;
20173;SDS011;10246;50.620;7.232;2023-02-27T04:20:28;3.93;;;2.60;;
20173;SDS011;10246;50.620;7.232;2023-02-27T04:23:04;4.10;;;2.53;;
20173;SDS011;10246;50.620;7.232;2023-02-27T04:25:42;3.57;;;2.23;;
20173;SDS011;10246;50.620;7.232;2023-02-27T04:28:17;3.10;;;2.40;;
20173;SDS011;10246;50.620;7.232;2023-02-27T04:30:54;4.03;;;2.67;;
20173;SDS011;10246;50.620;7.232;2023-02-27T04:33:28;4.47;;;2.87;;
20173;SDS011;10246;50.620;7.232;2023-02-27T04:36:04;3.57;;;2.40;;
20173;SDS011;10246;50.620;7.232;2023-02-27T04:38:35;3.23;;;2.17;;
20173;SDS011;10246;50.620;7.232;2023-02-27T04:41:08;3.37;;;2.33;;
20173;SDS011;10246;50.620;7.232;2023-02-27T04:43:39;4.20;;;2.47;;
20173;SDS011;10246;50.620;7.232;2023-02-27T04:46:09;2.90;;;2.17;;
20173;SDS011;10246;50.620;7.232;2023-02-27T04:48:42;4.20;;;2.40;;
20173;SDS011;10246;50.620;7.232;2023-02-27T04:51:14;4.80;;;2.50;;
20173;SDS011;10246;50.620;7.232;2023-02-27T04:53:45;6.53;;;2.40;;
20173;SDS011;10246;50.620;7.232;2023-02-27T04:56:19;4.47;;;2.27;;
20173;SDS011;10246;50.620;7.232;2023-02-27T04:58:50;4.73;;;2.33;;
20173;SDS011;10246;50.620;7.232;2023-02-27T05:01:21;3.87;;;2.97;;
20173;SDS011;10246;50.620;7.232;2023-02-27T05:03:50;4.07;;;3.50;;
20173;SDS011;10246;50.620;7.232;2023-02-27T05:06:20;6.03;;;3.10;;
20173;SDS011;10246;50.620;7.232;2023-02-27T05:08:53;3.43;;;2.60;;
20173;SDS011;10246;50.620;7.232;2023-02-27T05:11:25;4.57;;;2.60;;
20173;SDS011;10246;50.620;7.232;2023-02-27T05:13:57;3.30;;;2.50;;
20173;SDS011;10246;50.620;7.232;2023-02-27T05:16:28;4.20;;;2.60;;
20173;SDS011;10246;50.620;7.232;2023-02-27T05:18:58;4.77;;;2.77;;
20173;SDS011;10246;50.620;7.232;2023-02-27T05:21:28;3.70;;;2.23;;
20173;SDS011;10246;50.620;7.232;2023-02-27T05:24:02;2.83;;;1.97;;
20173;SDS011;10246;50.620;7.232;2023-02-27T05:26:44;2.67;;;1.97;;
20173;SDS011;10246;50.620;7.232;2023-02-27T05:29:21;2.87;;;2.40;;
20173;SDS011;10246;50.620;7.232;2023-02-27T05:31:54;3.77;;;1.97;;
20173;SDS011;10246;50.620;7.232;2023-02-27T05:34:28;3.10;;;2.33;;
20173;SDS011;10246;50.620;7.232;2023-02-27T05:37:02;2.60;;;1.97;;
20173;SDS011;10246;50.620;7.232;2023-02-27T05:39:33;2.37;;;1.97;;
20173;SDS011;10246;50.620;7.232;2023-02-27T05:42:05;3.37;;;2.13;;
20173;SDS011;10246;50.620;7.232;2023-02-27T05:44:38;2.70;;;2.10;;
20173;SDS011;10246;50.620;7.232;2023-02-27T05:47:08;4.50;;;2.50;;
20173;SDS011;10246;50.620;7.232;2023-02-27T05:49:39;3.63;;;2.40;;
20173;SDS011;10246;50.620;7.232;2023-02-27T05:52:10;3.23;;;2.27;;
20173;SDS011;10246;50.620;7.232;2023-02-27T05:54:41;2.57;;;2.03;;
20173;SDS011;10246;50.620;7.232;2023-02-27T05:57:13;2.07;;;1.60;;
20173;SDS011;10246;50.620;7.232;2023-02-27T05:59:45;3.40;;;2.10;;
20173;SDS011;10246;50.620;7.232;2023-02-27T06:02:17;2.63;;;1.60;;
20173;SDS011;10246;50.620;7.232;2023-02-27T06:04:44;1.87;;;1.50;;
20173;SDS011;10246;50.620;7.232;2023-02-27T06:07:10;2.50;;;1.97;;
20173;SDS011;10246;50.620;7.232;2023-02-27T06:09:38;3.93;;;1.73;;
20173;SDS011;10246;50.620;7.232;2023-02-27T06:12:06;2.63;;;1.80;;
20173;SDS011;10246;50.620;7.232;2023-02-27T06:14:34;2.43;;;1.83;;
20173;SDS011;10246;50.620;7.232;2023-02-27T06:17:01;1.93;;;1.57;;
20173;SDS011;10246;50.620;7.232;2023-02-27T06:19:28;1.63;;;1.53;;
20173;SDS011;10246;50.620;7.232;2023-02-27T06:21:55;1.47;;;1.30;;
20173;SDS011;10246;50.620;7.232;2023-02-27T06:24:22;1.40;;;1.30;;
20173;SDS011;10246;50.620;7.232;2023-02-27T06:26:49;1.77;;;1.33;;
20173;SDS011;10246;50.620;7.232;2023-02-27T06:29:16;2.00;;;1.50;;
20173;SDS011;10246;50.620;7.232;2023-02-27T06:31:44;2.47;;;1.80;;
20173;SDS011;10246;50.620;7.232;2023-02-27T06:34:10;3.70;;;1.87;;
20173;SDS011;10246;50.620;7.232;2023-02-27T06:36:37;2.37;;;1.80;;
20173;SDS011;10246;50.620;7.232;2023-02-27T06:39:04;1.70;;;1.43;;
20173;SDS011;10246;50.620;7.232;2023-02-27T06:41:31;1.80;;;1.40;;
20173;SDS011;10246;50.620;7.232;2023-02-27T06:43:58;2.40;;;1.73;;
20173;SDS011;10246;50.620;7.232;2023-02-27T06:46:24;1.73;;;1.57;;
20173;SDS011;10246;50.620;7.232;2023-02-27T06:48:53;2.70;;;1.80;;
20173;SDS011;10246;50.620;7.232;2023-02-27T06:51:19;5.03;;;2.23;;
20173;SDS011;10246;50.620;7.232;2023-02-27T06:53:46;11.67;;;5.03;;
20173;SDS011;10246;50.620;7.232;2023-02-27T06:56:13;18.47;;;8.07;;
20173;SDS011;10246;50.620;7.232;2023-02-27T06:58:40;18.67;;;9.13;;
20173;SDS011;10246;50.620;7.232;2023-02-27T07:01:07;25.43;;;11.17;;
20173;SDS011;10246;50.620;7.232;2023-02-27T07:03:34;26.73;;;12.53;;
20173;SDS011;10246;50.620;7.232;2023-02-27T07:06:02;34.77;;;13.77;;
20173;SDS011;10246;50.620;7.232;2023-02-27T07:08:29;25.23;;;12.00;;
20173;SDS011;10246;50.620;7.232;2023-02-27T07:10:56;25.93;;;11.33;;
20173;SDS011;10246;50.620;7.232;2023-02-27T07:13:23;19.63;;;8.77;;
20173;SDS011;10246;50.620;7.232;2023-02-27T07:15:50;15.37;;;6.50;;
20173;SDS011;10246;50.620;7.232;2023-02-27T07:18:18;9.87;;;5.23;;
20173;SDS011;10246;50.620;7.232;2023-02-27T07:20:46;8.93;;;4.40;;
20173;SDS011;10246;50.620;7.232;2023-02-27T07:23:17;5.00;;;2.80;;
20173;SDS011;10246;50.620;7.232;2023-02-27T07:25:45;4.83;;;2.53;;
20173;SDS011;10246;50.620;7.232;2023-02-27T07:28:12;6.40;;;2.80;;
20173;SDS011;10246;50.620;7.232;2023-02-27T07:30:38;5.27;;;2.53;;
20173;SDS011;10246;50.620;7.232;2023-02-27T07:33:05;3.70;;;2.40;;
20173;SDS011;10246;50.620;7.232;2023-02-27T07:35:32;4.00;;;2.40;;
20173;SDS011;10246;50.620;7.232;2023-02-27T07:37:59;4.23;;;2.20;;
20173;SDS011;10246;50.620;7.232;2023-02-27T07:40:27;3.03;;;2.37;;
20173;SDS011;10246;50.620;7.232;2023-02-27T07:42:54;3.83;;;2.00;;
20173;SDS011;10246;50.620;7.232;2023-02-27T07:45:21;2.30;;;1.83;;
20173;SDS011;10246;50.620;7.232;2023-02-27T07:47:47;3.00;;;2.00;;
20173;SDS011;10246;50.620;7.232;2023-02-27T07:50:14;2.50;;;1.97;;
20173;SDS011;10246;50.620;7.232;2023-02-27T07:52:42;2.97;;;2.27;;
20173;SDS011;10246;50.620;7.232;2023-02-27T07:55:10;4.07;;;2.30;;
20173;SDS011;10246;50.620;7.232;2023-02-27T07:57:39;9.17;;;2.93;;
20173;SDS011;10246;50.620;7.232;2023-02-27T08:00:06;5.00;;;2.60;;
20173;SDS011;10246;50.620;7.232;2023-02-27T08:02:34;4.33;;;2.73;;
20173;SDS011;10246;50.620;7.232;2023-02-27T08:05:01;5.23;;;3.00;;
20173;SDS011;10246;50.620;7.232;2023-02-27T08:07:28;7.47;;;3.73;;
20173;SDS011;10246;50.620;7.232;2023-02-27T08:09:55;4.37;;;3.40;;
20173;SDS011;10246;50.620;7.232;2023-02-27T08:12:22;4.50;;;3.30;;
20173;SDS011;10246;50.620;7.232;2023-02-27T08:14:50;5.23;;;3.50;;
20173;SDS011;10246;50.620;7.232;2023-02-27T08:17:17;5.40;;;3.63;;
20173;SDS011;10246;50.620;7.232;2023-02-27T08:19:43;6.87;;;3.43;;
20173;SDS011;10246;50.620;7.232;2023-02-27T08:22:10;5.97;;;3.63;;
20173;SDS011;10246;50.620;7.232;2023-02-27T08:24:37;6.77;;;3.77;;
20173;SDS011;10246;50.620;7.232;2023-02-27T08:27:05;7.67;;;3.97;;
20173;SDS011;10246;50.620;7.232;2023-02-27T08:29:32;5.30;;;3.70;;
20173;SDS011;10246;50.620;7.232;2023-02-27T08:32:01;6.87;;;4.10;;
20173;SDS011;10246;50.620;7.232;2023-02-27T08:34:28;7.87;;;4.07;;
20173;SDS011;10246;50.620;7.232;2023-02-27T08:36:55;6.70;;;4.07;;
20173;SDS011;10246;50.620;7.232;2023-02-27T08:39:23;5.93;;;3.80;;
20173;SDS011;10246;50.620;7.232;2023-02-27T08:41:49;7.93;;;3.80;;
20173;SDS011;10246;50.620;7.232;2023-02-27T08:44:17;5.73;;;4.33;;
20173;SDS011;10246;50.620;7.232;2023-02-27T08:46:45;6.47;;;4.03;;
20173;SDS011;10246;50.620;7.232;2023-02-27T08:49:14;10.47;;;4.00;;
20173;SDS011;10246;50.620;7.232;2023-02-27T08:51:41;6.70;;;3.87;;
20173;SDS011;10246;50.620;7.232;2023-02-27T08:54:08;6.57;;;4.10;;
20173;SDS011;10246;50.620;7.232;2023-02-27T08:56:35;5.23;;;4.03;;
20173;SDS011;10246;50.620;7.232;2023-02-27T08:59:02;5.77;;;3.70;;
20173;SDS011;10246;50.620;7.232;2023-02-27T09:01:29;6.10;;;3.90;;
20173;SDS011;10246;50.620;7.232;2023-02-27T09:03:58;5.47;;;3.33;;
20173;SDS011;10246;50.620;7.232;2023-02-27T09:06:28;5.27;;;3.30;;
20173;SDS011;10246;50.620;7.232;2023-02-27T09:08:55;6.40;;;2.70;;
20173;SDS011;10246;50.620;7.232;2023-02-27T09:11:22;4.60;;;2.67;;
20173;SDS011;10246;50.620;7.232;2023-02-27T09:13:49;5.80;;;2.80;;
20173;SDS011;10246;50.620;7.232;2023-02-27T09:16:16;3.40;;;2.43;;
20173;SDS011;10246;50.620;7.232;2023-02-27T09:18:43;4.20;;;2.40;;
20173;SDS011;10246;50.620;7.232;2023-02-27T09:21:10;4.67;;;2.23;;
20173;SDS011;10246;50.620;7.232;2023-02-27T09:23:39;3.37;;;2.30;;
20173;SDS011;10246;50.620;7.232;2023-02-27T09:26:06;3.07;;;1.80;;
20173;SDS011;10246;50.620;7.232;2023-02-27T09:28:34;4.23;;;2.00;;
20173;SDS011;10246;50.620;7.232;2023-02-27T09:31:01;6.30;;;2.07;;
20173;SDS011;10246;50.620;7.232;2023-02-27T09:33:29;2.63;;;1.70;;
20173;SDS011;10246;50.620;7.232;2023-02-27T09:35:56;2.67;;;1.70;;
20173;SDS011;10246;50.620;7.232;2023-02-27T09:38:23;1.93;;;1.63;;
20173;SDS011;10246;50.620;7.232;2023-02-27T09:40:52;2.20;;;1.50;;
20173;SDS011;10246;50.620;7.232;2023-02-27T09:43:22;1.40;;;1.13;;
20173;SDS011;10246;50.620;7.232;2023-02-27T09:45:54;1.10;;;1.00;;
20173;SDS011;10246;50.620;7.232;2023-02-27T09:48:25;1.97;;;1.13;;
20173;SDS011;10246;50.620;7.232;2023-02-27T09:50:55;1.03;;;0.87;;
20173;SDS011;10246;50.620;7.232;2023-02-27T09:53:24;1.60;;;1.10;;
20173;SDS011;10246;50.620;7.232;2023-02-27T09:55:57;1.53;;;1.10;;
20173;SDS011;10246;50.620;7.232;2023-02-27T09:58:36;0.80;;;0.80;;
20173;SDS011;10246;50.620;7.232;2023-02-27T10:01:08;1.30;;;1.10;;
20173;SDS011;10246;50.620;7.232;2023-02-27T10:03:49;4.53;;;1.20;;
20173;SDS011;10246;50.620;7.232;2023-02-27T10:06:43;1.37;;;0.97;;
20173;SDS011;10246;50.620;7.232;2023-02-27T10:09:19;1.20;;;0.90;;
20173;SDS011;10246;50.620;7.232;2023-02-27T10:11:59;1.43;;;0.90;;
20173;SDS011;10246;50.620;7.232;2023-02-27T10:14:35;2.00;;;1.00;;
20173;SDS011;10246;50.620;7.232;2023-02-27T10:17:10;1.53;;;0.90;;
20173;SDS011;10246;50.620;7.232;2023-02-27T10:19:43;1.43;;;1.00;;
20173;SDS011;10246;50.620;7.232;2023-02-27T10:22:13;1.10;;;1.00;;
20173;SDS011;10246;50.620;7.232;2023-02-27T10:24:48;1.33;;;0.90;;
20173;SDS011;10246;50.620;7.232;2023-02-27T10:27:19;1.37;;;0.97;;
20173;SDS011;10246;50.620;7.232;2023-02-27T10:29:48;1.40;;;0.83;;
20173;SDS011;10246;50.620;7.232;2023-02-27T10:32:16;0.80;;;0.80;;
20173;SDS011;10246;50.620;7.232;2023-02-27T10:34:46;1.30;;;0.87;;
20173;SDS011;10246;50.620;7.232;2023-02-27T10:37:17;1.97;;;1.10;;
20173;SDS011;10246;50.620;7.232;2023-02-27T10:39:49;1.30;;;0.87;;
20173;SDS011;10246;50.620;7.232;2023-02-27T10:42:20;4.20;;;1.10;;
20173;SDS011;10246;50.620;7.232;2023-02-27T10:44:50;2.10;;;1.23;;
20173;SDS011;10246;50.620;7.232;2023-02-27T10:47:17;2.23;;;0.93;;
20173;SDS011;10246;50.620;7.232;2023-02-27T10:49:48;1.20;;;1.10;;
20173;SDS011;10246;50.620;7.232;2023-02-27T10:52:16;1.47;;;1.07;;
20173;SDS011;10246;50.620;7.232;2023-02-27T10:54:44;1.37;;;0.87;;
20173;SDS011;10246;50.620;7.232;2023-02-27T10:57:19;2.03;;;1.00;;
20173;SDS011;10246;50.620;7.232;2023-02-27T10:59:52;1.43;;;1.20;;
20173;SDS011;10246;50.620;7.232;2023-02-27T11:02:22;2.50;;;0.90;;
20173;SDS011;10246;50.620;7.232;2023-02-27T11:04:52;2.90;;;1.10;;
20173;SDS011;10246;50.620;7.232;2023-02-27T11:07:28;2.07;;;0.80;;
20173;SDS011;10246;50.620;7.232;2023-02-27T11:10:03;1.67;;;1.40;;
20173;SDS011;10246;50.620;7.232;2023-02-27T11:12:55;1.60;;;0.97;;
20173;SDS011;10246;50.620;7.232;2023-02-27T11:15:28;0.90;;;0.80;;
20173;SDS011;10246;50.620;7.232;2023-02-27T11:20:51;1.03;;;0.80;;
20173;SDS011;10246;50.620;7.232;2023-02-27T11:23:19;1.60;;;0.97;;
20173;SDS011;10246;50.620;7.232;2023-02-27T11:25:47;0.50;;;0.50;;
20173;SDS011;10246;50.620;7.232;2023-02-27T11:28:23;1.10;;;0.70;;
20173;SDS011;10246;50.620;7.232;2023-02-27T11:30:56;0.80;;;0.70;;
20173;SDS011;10246;50.620;7.232;2023-02-27T11:33:25;1.47;;;0.60;;
20173;SDS011;10246;50.620;7.232;2023-02-27T11:35:53;0.80;;;0.80;;
20173;SDS011;10246;50.620;7.232;2023-02-27T11:38:22;2.70;;;0.70;;
20173;SDS011;10246;50.620;7.232;2023-02-27T11:40:52;1.70;;;0.67;;
20173;SDS011;10246;50.620;7.232;2023-02-27T11:43:22;3.17;;;0.70;;
20173;SDS011;10246;50.620;7.232;2023-02-27T11:45:51;0.97;;;0.70;;
20173;SDS011;10246;50.620;7.232;2023-02-27T11:48:22;1.33;;;1.00;;
20173;SDS011;10246;50.620;7.232;2023-02-27T11:50:53;1.83;;;1.00;;
20173;SDS011;10246;50.620;7.232;2023-02-27T11:56:40;0.87;;;0.80;;
20173;SDS011;10246;50.620;7.232;2023-02-27T11:59:14;2.20;;;0.97;;
20173;SDS011;10246;50.620;7.232;2023-02-27T12:01:48;0.80;;;0.70;;
20173;SDS011;10246;50.620;7.232;2023-02-27T12:04:20;1.07;;;0.80;;
20173;SDS011;10246;50.620;7.232;2023-02-27T12:06:53;1.13;;;0.83;;
20173;SDS011;10246;50.620;7.232;2023-02-27T12:09:29;1.63;;;1.20;;
20173;SDS011;10246;50.620;7.232;2023-02-27T12:12:04;1.10;;;0.90;;
20173;SDS011;10246;50.620;7.232;2023-02-27T12:14:41;0.93;;;0.83;;
20173;SDS011;10246;50.620;7.232;2023-02-27T12:17:14;0.90;;;0.70;;
20173;SDS011;10246;50.620;7.232;2023-02-27T12:19:48;0.83;;;0.80;;
20173;SDS011;10246;50.620;7.232;2023-02-27T12:22:25;0.97;;;0.70;;
20173;SDS011;10246;50.620;7.232;2023-02-27T12:24:55;1.23;;;0.70;;
20173;SDS011;10246;50.620;7.232;2023-02-27T12:27:28;0.83;;;0.53;;
20173;SDS011;10246;50.620;7.232;2023-02-27T12:30:06;0.57;;;0.57;;
20173;SDS011;10246;50.620;7.232;2023-02-27T12:32:39;2.40;;;0.80;;
20173;SDS011;10246;50.620;7.232;2023-02-27T12:35:11;0.63;;;0.57;;
20173;SDS011;10246;50.620;7.232;2023-02-27T12:37:42;2.83;;;0.60;;
20173;SDS011;10246;50.620;7.232;2023-02-27T12:40:12;1.10;;;0.60;;
20173;SDS011;10246;50.620;7.232;2023-02-27T12:42:47;1.00;;;0.60;;
20173;SDS011;10246;50.620;7.232;2023-02-27T12:45:35;1.57;;;0.70;;
20173;SDS011;10246;50.620;7.232;2023-02-27T12:48:17;0.60;;;0.60;;
20173;SDS011;10246;50.620;7.232;2023-02-27T12:51:03;0.50;;;0.50;;
20173;SDS011;10246;50.620;7.232;2023-02-27T12:53:46;1.07;;;0.70;;
20173;SDS011;10246;50.620;7.232;2023-02-27T12:56:25;0.70;;;0.70;;
20173;SDS011;10246;50.620;7.232;2023-02-27T12:59:03;1.03;;;0.53;;
20173;SDS011;10246;50.620;7.232;2023-02-27T13:01:40;1.10;;;0.70;;
20173;SDS011;10246;50.620;7.232;2023-02-27T13:04:17;0.80;;;0.70;;
20173;SDS011;10246;50.620;7.232;2023-02-27T13:06:50;1.00;;;0.63;;
20173;SDS011;10246;50.620;7.232;2023-02-27T13:09:23;1.63;;;0.60;;
20173;SDS011;10246;50.620;7.232;2023-02-27T13:12:00;1.40;;;0.83;;
20173;SDS011;10246;50.620;7.232;2023-02-27T13:14:38;0.97;;;0.67;;
20173;SDS011;10246;50.620;7.232;2023-02-27T13:17:14;0.60;;;0.57;;
20173;SDS011;10246;50.620;7.232;2023-02-27T13:19:47;1.40;;;0.70;;
20173;SDS011;10246;50.620;7.232;2023-02-27T13:22:19;0.50;;;0.50;;
20173;SDS011;10246;50.620;7.232;2023-02-27T13:24:54;0.73;;;0.40;;
20173;SDS011;10246;50.620;7.232;2023-02-27T13:27:25;0.40;;;0.40;;
20173;SDS011;10246;50.620;7.232;2023-02-27T13:30:02;0.50;;;0.50;;
20173;SDS011;10246;50.620;7.232;2023-02-27T13:32:39;1.57;;;0.50;;
20173;SDS011;10246;50.620;7.232;2023-02-27T13:35:24;0.60;;;0.50;;
20173;SDS011;10246;50.620;7.232;2023-02-27T13:37:56;0.83;;;0.60;;
20173;SDS011;10246;50.620;7.232;2023-02-27T13:40:30;0.60;;;0.47;;
20173;SDS011;10246;50.620;7.232;2023-02-27T13:43:03;2.17;;;0.50;;
20173;SDS011;10246;50.620;7.232;2023-02-27T13:45:52;0.83;;;0.50;;
20173;SDS011;10246;50.620;7.232;2023-02-27T13:54:22;1.47;;;0.80;;
20173;SDS011;10246;50.620;7.232;2023-02-27T13:57:04;1.07;;;0.60;;
20173;SDS011;10246;50.620;7.232;2023-02-27T13:59:33;0.60;;;0.50;;
20173;SDS011;10246;50.620;7.232;2023-02-27T14:02:04;0.90;;;0.60;;
20173;SDS011;10246;50.620;7.232;2023-02-27T14:04:53;0.73;;;0.60;;
20173;SDS011;10246;50.620;7.232;2023-02-27T14:07:22;0.70;;;0.50;;
20173;SDS011;10246;50.620;7.232;2023-02-27T14:09:52;0.87;;;0.50;;
20173;SDS011;10246;50.620;7.232;2023-02-27T14:12:27;0.50;;;0.50;;
20173;SDS011;10246;50.620;7.232;2023-02-27T14:14:56;0.70;;;0.60;;
20173;SDS011;10246;50.620;7.232;2023-02-27T14:17:38;2.67;;;1.50;;
20173;SDS011;10246;50.620;7.232;2023-02-27T14:20:11;2.30;;;0.90;;
20173;SDS011;10246;50.620;7.232;2023-02-27T14:25:37;3.50;;;1.87;;
20173;SDS011;10246;50.620;7.232;2023-02-27T14:28:11;3.43;;;1.87;;
20173;SDS011;10246;50.620;7.232;2023-02-27T14:30:50;2.13;;;1.20;;
20173;SDS011;10246;50.620;7.232;2023-02-27T14:33:20;1.27;;;1.00;;
20173;SDS011;10246;50.620;7.232;2023-02-27T14:35:52;1.97;;;1.40;;
20173;SDS011;10246;50.620;7.232;2023-02-27T14:38:23;2.23;;;1.10;;
20173;SDS011;10246;50.620;7.232;2023-02-27T14:41:06;2.77;;;1.10;;
20173;SDS011;10246;50.620;7.232;2023-02-27T14:43:53;1.43;;;0.80;;
20173;SDS011;10246;50.620;7.232;2023-02-27T14:46:23;0.70;;;0.70;;
20173;SDS011;10246;50.620;7.232;2023-02-27T14:48:54;0.90;;;0.70;;
20173;SDS011;10246;50.620;7.232;2023-02-27T14:51:23;0.50;;;0.50;;
20173;SDS011;10246;50.620;7.232;2023-02-27T14:54:01;1.80;;;0.77;;
20173;SDS011;10246;50.620;7.232;2023-02-27T14:56:30;3.83;;;0.80;;
20173;SDS011;10246;50.620;7.232;2023-02-27T14:58:58;2.07;;;0.93;;
20173;SDS011;10246;50.620;7.232;2023-02-27T15:01:25;1.17;;;1.00;;
20173;SDS011;10246;50.620;7.232;2023-02-27T15:03:53;1.93;;;0.90;;
20173;SDS011;10246;50.620;7.232;2023-02-27T15:06:27;2.10;;;0.80;;
20173;SDS011;10246;50.620;7.232;2023-02-27T15:08:59;0.60;;;0.60;;
20173;SDS011;10246;50.620;7.232;2023-02-27T15:11:27;0.70;;;0.60;;
20173;SDS011;10246;50.620;7.232;2023-02-27T15:13:57;1.00;;;0.70;;
20173;SDS011;10246;50.620;7.232;2023-02-27T15:16:33;1.03;;;0.80;;
20173;SDS011;10246;50.620;7.232;2023-02-27T15:19:03;0.87;;;0.73;;
20173;SDS011;10246;50.620;7.232;2023-02-27T15:21:40;0.73;;;0.73;;
20173;SDS011;10246;50.620;7.232;2023-02-27T15:24:17;0.73;;;0.70;;
20173;SDS011;10246;50.620;7.232;2023-02-27T15:26:51;1.00;;;0.80;;
20173;SDS011;10246;50.620;7.232;2023-02-27T15:29:21;0.80;;;0.73;;
20173;SDS011;10246;50.620;7.232;2023-02-27T15:31:49;0.60;;;0.60;;
20173;SDS011;10246;50.620;7.232;2023-02-27T15:34:16;1.10;;;0.53;;